METAR Data

Data at: 2207 UTC 01 Dec 2021

METAR for:KAUG (Augusta/State Arpt, ME, US)
Text:KAUG 012153Z AUTO 26003KT 10SM CLR 03/M05 A3007 RMK AO2 SLP187 T00331050
Temperature: 3.3°C ( 38°F)
Dewpoint: -5.0°C ( 23°F) [RH = 54%]
Pressure (altimeter):30.07 inches Hg (1018.4 mb) [Sea level pressure: 1018.7 mb]
Winds:from the W (260 degrees) at 3 MPH (3 knots; 1.5 m/s)
Visibility:10 or more sm (16+ km)
Ceiling:at least 12,000 feet AGL
Clouds:sky clear below 12,000 feet AGL
QC Flag:automated observation with no human augmentation